createdAt,value
2022-10-10T00:01:13.138Z,100746.56
2022-10-10T00:03:40.829Z,100747.19
2022-10-10T00:06:08.353Z,100741.25
2022-10-10T00:08:35.728Z,100739.06
2022-10-10T00:11:04.078Z,100738.72
2022-10-10T00:13:31.578Z,100736.22
2022-10-10T00:15:59.026Z,100729.88
2022-10-10T00:18:26.626Z,100731.87
2022-10-10T00:20:53.950Z,100733.22
2022-10-10T00:23:21.403Z,100724.19
2022-10-10T00:25:49.013Z,100727.88
2022-10-10T00:28:16.471Z,100730.22
2022-10-10T00:30:44.074Z,100734.75
2022-10-10T00:33:11.921Z,100728.34
2022-10-10T00:35:39.317Z,100730.53
2022-10-10T00:38:06.768Z,100729.97
2022-10-10T00:40:36.377Z,100720.84
2022-10-10T00:43:03.690Z,100722.00
2022-10-10T00:45:40.235Z,100725.97
2022-10-10T00:48:31.822Z,100711.03
2022-10-10T00:51:03.618Z,100718.22
2022-10-10T00:53:34.020Z,100709.88
2022-10-10T00:56:01.688Z,100701.84
2022-10-10T00:58:29.020Z,100700.50
2022-10-10T01:00:56.771Z,100697.34
2022-10-10T01:03:24.125Z,100694.31
2022-10-10T01:05:51.489Z,100696.97
2022-10-10T01:08:19.643Z,100689.66
2022-10-10T01:11:12.274Z,100697.19
2022-10-10T01:13:55.197Z,100688.31
2022-10-10T01:16:47.622Z,100688.63
2022-10-10T01:19:24.167Z,100704.00
2022-10-10T01:21:58.138Z,100696.28
2022-10-10T01:24:49.387Z,100707.25
2022-10-10T01:27:22.341Z,100698.00
2022-10-10T01:29:54.440Z,100704.38
2022-10-10T01:32:23.748Z,100686.19
2022-10-10T01:35:07.019Z,100693.63
2022-10-10T01:37:42.190Z,100688.41
2022-10-10T01:40:12.144Z,100682.13
2022-10-10T01:42:42.006Z,100678.16
2022-10-10T01:45:09.845Z,100680.19
2022-10-10T01:47:37.218Z,100686.50
2022-10-10T01:50:07.813Z,100683.56
2022-10-10T01:53:03.319Z,100676.12
2022-10-10T01:55:39.812Z,100690.28
2022-10-10T01:58:07.251Z,100686.81
2022-10-10T02:00:45.646Z,100689.59
2022-10-10T02:03:31.020Z,100695.09
2022-10-10T02:06:37.186Z,100688.34
2022-10-10T02:09:07.425Z,100678.97
2022-10-10T02:11:36.497Z,100678.16
2022-10-10T02:14:21.171Z,100670.13
2022-10-10T02:16:50.133Z,100675.13
2022-10-10T02:19:18.990Z,100690.97
2022-10-10T02:21:47.748Z,100688.72
2022-10-10T02:24:15.334Z,100675.31
2022-10-10T02:26:45.099Z,100671.97
2022-10-10T02:29:17.650Z,100675.44
2022-10-10T02:31:53.194Z,100672.81
2022-10-10T02:34:25.905Z,100688.41
2022-10-10T02:36:58.621Z,100685.44
2022-10-10T02:39:28.294Z,100694.41
2022-10-10T02:41:56.013Z,100694.56
2022-10-10T02:44:23.372Z,100689.06
2022-10-10T02:46:50.723Z,100689.53
2022-10-10T02:49:27.834Z,100682.72
2022-10-10T02:51:55.235Z,100679.72
2022-10-10T02:54:22.929Z,100682.44
2022-10-10T02:56:50.550Z,100685.75
2022-10-10T02:59:17.929Z,100669.12
2022-10-10T03:01:45.576Z,100679.28
2022-10-10T03:04:13.029Z,100683.72
2022-10-10T03:06:40.379Z,100668.44
2022-10-10T03:09:07.985Z,100667.41
2022-10-10T03:11:35.323Z,100674.75
2022-10-10T03:14:02.753Z,100679.06
2022-10-10T03:16:30.342Z,100683.56
2022-10-10T03:18:57.641Z,100672.09
2022-10-10T03:21:24.973Z,100672.44
2022-10-10T03:23:52.572Z,100670.59
2022-10-10T03:26:19.884Z,100678.53
2022-10-10T03:28:47.260Z,100674.25
2022-10-10T03:31:14.890Z,100674.84
2022-10-10T03:33:42.210Z,100664.94
2022-10-10T03:36:09.592Z,100677.50
2022-10-10T03:38:37.202Z,100674.13
2022-10-10T03:41:04.538Z,100679.53
2022-10-10T03:43:31.992Z,100674.44
2022-10-10T03:45:59.582Z,100670.56
2022-10-10T03:48:26.890Z,100668.75
2022-10-10T03:50:54.209Z,100672.56
2022-10-10T03:53:22.302Z,100670.59
2022-10-10T03:55:49.650Z,100667.72
2022-10-10T03:58:20.160Z,100667.41
2022-10-10T04:00:58.657Z,100667.91
2022-10-10T04:03:26.466Z,100671.22
2022-10-10T04:05:53.820Z,100670.56
2022-10-10T04:08:21.141Z,100660.75
2022-10-10T04:10:49.737Z,100656.78
2022-10-10T04:13:17.169Z,100663.75
2022-10-10T04:15:44.662Z,100662.56
2022-10-10T04:18:12.331Z,100665.44
2022-10-10T04:20:39.791Z,100660.87
2022-10-10T04:23:07.102Z,100663.41
2022-10-10T04:25:34.678Z,100661.25
2022-10-10T04:28:02.140Z,100662.53
2022-10-10T04:30:31.550Z,100666.50
2022-10-10T04:32:59.346Z,100663.28
2022-10-10T04:35:26.711Z,100666.31
2022-10-10T04:37:54.049Z,100661.44
2022-10-10T04:40:26.235Z,100666.59
2022-10-10T04:42:54.616Z,100670.56
2022-10-10T04:45:22.816Z,100671.31
2022-10-10T04:47:50.199Z,100669.34
2022-10-10T04:50:17.636Z,100674.37
2022-10-10T04:52:45.271Z,100677.66
2022-10-10T04:55:12.821Z,100678.41
2022-10-10T04:57:40.187Z,100671.22
2022-10-10T05:00:09.276Z,100676.97
2022-10-10T05:02:36.679Z,100677.84
2022-10-10T05:05:04.429Z,100682.91
2022-10-10T05:07:32.009Z,100674.47
2022-10-10T05:09:59.507Z,100678.94
2022-10-10T05:12:26.867Z,100678.72
2022-10-10T05:14:54.474Z,100666.69
2022-10-10T05:17:21.800Z,100669.78
2022-10-10T05:19:49.244Z,100676.03
2022-10-10T05:22:16.828Z,100674.50
2022-10-10T05:24:44.204Z,100673.22
2022-10-10T05:27:11.556Z,100676.72
2022-10-10T05:29:39.132Z,100678.84
2022-10-10T05:32:10.044Z,100678.47
2022-10-10T05:34:38.278Z,100674.69
2022-10-10T05:37:05.953Z,100676.69
2022-10-10T05:39:33.338Z,100679.19
2022-10-10T05:42:00.746Z,100684.87
2022-10-10T05:44:28.479Z,100685.88
2022-10-10T05:46:55.862Z,100670.91
2022-10-10T05:49:23.635Z,100690.38
2022-10-10T05:51:51.302Z,100686.88
2022-10-10T05:54:18.656Z,100690.84
2022-10-10T05:56:46.514Z,100686.88
2022-10-10T05:59:14.234Z,100685.31
2022-10-10T06:01:41.582Z,100690.16
2022-10-10T06:04:09.226Z,100692.47
2022-10-10T06:06:36.549Z,100685.00
2022-10-10T06:09:03.906Z,100693.12
2022-10-10T06:11:31.581Z,100679.97
2022-10-10T06:13:58.893Z,100696.91
2022-10-10T06:16:26.950Z,100693.53
2022-10-10T06:18:56.702Z,100692.75
2022-10-10T06:21:24.242Z,100680.91
2022-10-10T06:23:51.672Z,100676.47
2022-10-10T06:26:19.326Z,100680.09
2022-10-10T06:28:46.755Z,100692.13
2022-10-10T06:31:14.274Z,100684.47
2022-10-10T06:33:43.244Z,100676.63
2022-10-10T06:36:10.673Z,100692.56
2022-10-10T06:38:38.807Z,100692.28
2022-10-10T06:41:06.690Z,100695.91
2022-10-10T06:43:34.250Z,100675.13
2022-10-10T06:46:01.724Z,100689.25
2022-10-10T06:48:35.004Z,100675.97
2022-10-10T06:51:04.929Z,100679.62
2022-10-10T06:53:32.769Z,100678.22
2022-10-10T06:56:00.162Z,100693.25
2022-10-10T06:58:27.995Z,100682.66
2022-10-10T07:00:57.256Z,100693.75
2022-10-10T07:03:24.838Z,100679.47
2022-10-10T07:05:52.805Z,100677.81
2022-10-10T07:08:20.705Z,100669.78
2022-10-10T07:10:48.090Z,100679.81
2022-10-10T07:13:15.566Z,100680.97
2022-10-10T07:15:43.251Z,100683.25
2022-10-10T07:18:10.925Z,100682.62
2022-10-10T07:20:39.025Z,100682.13
2022-10-10T07:23:06.649Z,100684.09
2022-10-10T07:25:34.055Z,100686.16
2022-10-10T07:28:01.373Z,100679.00
2022-10-10T07:30:29.076Z,100676.84
2022-10-10T07:32:56.425Z,100684.66
2022-10-10T07:35:23.823Z,100681.47
2022-10-10T07:37:55.428Z,100689.47
2022-10-10T07:40:22.998Z,100688.81
2022-10-10T07:42:50.970Z,100689.81
2022-10-10T07:45:18.643Z,100690.63
2022-10-10T07:47:46.087Z,100677.84
2022-10-10T07:50:13.963Z,100689.16
2022-10-10T07:52:41.611Z,100680.06
2022-10-10T07:55:09.269Z,100682.28
2022-10-10T07:57:36.912Z,100671.09
2022-10-10T08:00:08.723Z,100673.97
2022-10-10T08:02:38.939Z,100675.53
2022-10-10T08:05:06.755Z,100673.88
2022-10-10T08:07:34.432Z,100667.22
2022-10-10T08:10:02.591Z,100674.87
2022-10-10T08:12:30.641Z,100677.31
2022-10-10T08:15:02.013Z,100676.06
2022-10-10T08:17:32.623Z,100677.66
2022-10-10T08:20:09.274Z,100667.97
2022-10-10T08:22:40.749Z,100663.84
2022-10-10T08:25:12.116Z,100664.94
2022-10-10T08:27:39.783Z,100661.81
2022-10-10T08:30:07.407Z,100662.81
2022-10-10T08:32:34.860Z,100664.37
2022-10-10T08:35:02.465Z,100658.31
2022-10-10T08:37:33.976Z,100658.16
2022-10-10T08:40:05.227Z,100665.88
2022-10-10T08:42:36.698Z,100649.66
2022-10-10T08:45:11.669Z,100654.72
2022-10-10T08:47:46.924Z,100645.00
2022-10-10T08:50:21.106Z,100644.53
2022-10-10T08:52:58.253Z,100651.75
2022-10-10T08:55:33.110Z,100644.19
2022-10-10T08:58:16.248Z,100635.25
2022-10-10T09:01:07.784Z,100629.53
2022-10-10T09:03:43.453Z,100632.75
2022-10-10T09:06:43.980Z,100638.34
2022-10-10T09:09:36.357Z,100634.31
2022-10-10T09:12:28.533Z,100627.50
2022-10-10T09:15:11.319Z,100633.28
2022-10-10T09:17:48.691Z,100629.09
2022-10-10T09:20:27.841Z,100629.87
2022-10-10T09:22:57.379Z,100621.84
2022-10-10T09:25:31.702Z,100629.47
2022-10-10T09:28:10.983Z,100628.88
2022-10-10T09:30:42.222Z,100621.91
2022-10-10T09:33:32.009Z,100625.88
2022-10-10T09:35:59.735Z,100621.31
2022-10-10T09:38:34.608Z,100620.75
2022-10-10T09:41:23.422Z,100629.16
2022-10-10T09:43:57.823Z,100622.19
2022-10-10T09:46:25.932Z,100616.59
2022-10-10T09:48:53.358Z,100607.41
2022-10-10T09:51:20.803Z,100612.22
2022-10-10T09:53:49.029Z,100618.62
2022-10-10T09:56:18.596Z,100620.97
2022-10-10T09:58:47.604Z,100619.38
2022-10-10T10:01:15.430Z,100604.78
2022-10-10T10:03:43.250Z,100605.06
2022-10-10T10:06:14.777Z,100608.06
2022-10-10T10:08:42.763Z,100605.09
2022-10-10T10:11:28.765Z,100610.28
2022-10-10T10:13:56.641Z,100606.31
2022-10-10T10:16:36.548Z,100604.84
2022-10-10T10:19:04.202Z,100604.09
2022-10-10T10:21:32.412Z,100595.41
2022-10-10T10:24:01.065Z,100599.25
2022-10-10T10:26:40.327Z,100586.78
2022-10-10T10:29:23.973Z,100593.66
2022-10-10T10:31:57.152Z,100590.13
2022-10-10T10:34:47.228Z,100574.53
2022-10-10T10:37:21.922Z,100579.59
2022-10-10T10:40:09.440Z,100569.31
2022-10-10T10:42:48.908Z,100566.44
2022-10-10T10:45:29.024Z,100560.22
2022-10-10T10:48:21.879Z,100564.25
2022-10-10T10:50:53.340Z,100561.59
2022-10-10T10:53:40.721Z,100557.81
2022-10-10T10:56:56.438Z,100554.84
2022-10-10T11:00:21.952Z,100553.38
2022-10-10T11:03:27.959Z,100554.12
2022-10-10T11:06:16.736Z,100547.66
2022-10-10T11:08:53.551Z,100540.50
2022-10-10T11:11:35.604Z,100542.13
2022-10-10T11:14:12.035Z,100533.13
2022-10-10T11:16:48.845Z,100537.34
2022-10-10T11:19:23.924Z,100533.47
2022-10-10T11:22:09.065Z,100530.22
2022-10-10T11:24:44.636Z,100527.38
2022-10-10T11:27:30.535Z,100525.53
2022-10-10T11:30:12.471Z,100525.34
2022-10-10T11:33:12.678Z,100530.97
2022-10-10T11:35:44.837Z,100521.63
2022-10-10T11:38:19.771Z,100512.00
2022-10-10T11:41:05.721Z,100509.75
2022-10-10T11:43:49.556Z,100502.78
2022-10-10T11:46:56.457Z,100501.28
2022-10-10T11:49:43.472Z,100497.28
2022-10-10T11:52:34.831Z,100491.72
2022-10-10T11:55:06.575Z,100496.22
2022-10-10T11:57:41.474Z,100491.72
2022-10-10T12:00:16.098Z,100491.66
2022-10-10T12:02:45.008Z,100482.16
2022-10-10T12:05:19.910Z,100484.53
2022-10-10T12:07:57.767Z,100470.13
2022-10-10T12:10:27.892Z,100471.16
2022-10-10T12:12:57.031Z,100466.22
2022-10-10T12:15:36.215Z,100462.75
2022-10-10T12:18:07.824Z,100464.63
2022-10-10T12:20:35.758Z,100453.91
2022-10-10T12:23:23.510Z,100457.00
2022-10-10T12:25:51.483Z,100454.06
2022-10-10T12:28:21.644Z,100448.50
2022-10-10T12:30:58.131Z,100450.37
2022-10-10T12:33:46.429Z,100449.12
2022-10-10T12:36:19.567Z,100445.22
2022-10-10T12:39:03.225Z,100446.66
2022-10-10T12:41:47.007Z,100448.53
2022-10-10T12:44:14.921Z,100446.87
2022-10-10T12:46:42.918Z,100446.87
2022-10-10T12:49:21.321Z,100440.66
2022-10-10T12:52:20.094Z,100444.78
2022-10-10T12:54:47.542Z,100451.66
2022-10-10T12:57:23.034Z,100442.75
2022-10-10T12:59:50.358Z,100446.03
2022-10-10T13:02:25.641Z,100439.38
2022-10-10T13:04:55.295Z,100431.34
2022-10-10T13:07:22.932Z,100429.47
2022-10-10T13:09:51.678Z,100426.94
2022-10-10T13:12:27.054Z,100423.87
2022-10-10T13:14:54.973Z,100425.31
2022-10-10T13:17:24.698Z,100424.03
2022-10-10T13:19:52.909Z,100423.78
2022-10-10T13:22:20.797Z,100410.56
2022-10-10T13:24:48.152Z,100419.22
2022-10-10T13:27:21.099Z,100414.53
2022-10-10T13:29:48.727Z,100405.00
2022-10-10T13:32:18.446Z,100406.56
2022-10-10T13:34:48.703Z,100396.84
2022-10-10T13:37:17.128Z,100402.53
2022-10-10T13:39:44.698Z,100395.44
2022-10-10T13:42:30.816Z,100405.19
2022-10-10T13:45:00.422Z,100396.34
2022-10-10T13:48:15.460Z,100387.19
2022-10-10T13:50:43.013Z,100389.69
2022-10-10T13:53:29.110Z,100393.19
2022-10-10T13:55:59.934Z,100388.16
2022-10-10T13:58:29.103Z,100386.91
2022-10-10T14:00:57.694Z,100389.50
2022-10-10T14:03:25.327Z,100385.28
2022-10-10T14:05:52.749Z,100385.78
2022-10-10T14:08:23.923Z,100377.66
2022-10-10T14:11:00.998Z,100380.56
2022-10-10T14:13:29.283Z,100365.78
2022-10-10T14:16:13.140Z,100371.84
2022-10-10T14:18:40.603Z,100366.69
2022-10-10T14:21:08.668Z,100367.06
2022-10-10T14:23:39.141Z,100374.00
2022-10-10T14:26:08.003Z,100361.47
2022-10-10T14:28:37.259Z,100374.59
2022-10-10T14:31:05.312Z,100363.47
2022-10-10T14:33:32.857Z,100361.56
2022-10-10T14:36:00.504Z,100360.06
2022-10-10T14:38:27.869Z,100358.53
2022-10-10T14:40:55.539Z,100356.53
2022-10-10T14:43:24.465Z,100354.88
2022-10-10T14:45:52.563Z,100356.66
2022-10-10T14:48:20.060Z,100349.84
2022-10-10T14:50:48.026Z,100356.25
2022-10-10T14:53:15.386Z,100354.63
2022-10-10T14:55:43.715Z,100353.91
2022-10-10T14:58:16.462Z,100351.91
2022-10-10T15:00:43.931Z,100345.81
2022-10-10T15:03:11.598Z,100345.84
2022-10-10T15:05:39.108Z,100348.66
2022-10-10T15:08:07.082Z,100344.53
2022-10-10T15:10:35.368Z,100353.75
2022-10-10T15:13:03.261Z,100354.00
2022-10-10T15:15:30.641Z,100356.31
2022-10-10T15:17:58.714Z,100349.09
2022-10-10T15:20:31.199Z,100353.47
2022-10-10T15:23:04.219Z,100347.00
2022-10-10T15:25:34.002Z,100346.91
2022-10-10T15:28:02.642Z,100358.41
2022-10-10T15:30:30.128Z,100359.59
2022-10-10T15:32:57.515Z,100350.47
2022-10-10T15:35:25.156Z,100346.09
2022-10-10T15:37:52.513Z,100353.41
2022-10-10T15:40:22.206Z,100353.19
2022-10-10T15:42:49.930Z,100351.12
2022-10-10T15:45:31.345Z,100352.44
2022-10-10T15:48:05.381Z,100344.38
2022-10-10T15:50:36.015Z,100346.88
2022-10-10T15:53:03.381Z,100339.84
2022-10-10T15:55:30.997Z,100345.81
2022-10-10T15:57:58.615Z,100349.13
2022-10-10T16:00:26.395Z,100342.94
2022-10-10T16:02:54.037Z,100352.87
2022-10-10T16:05:21.501Z,100348.75
2022-10-10T16:07:49.943Z,100349.78
2022-10-10T16:10:17.780Z,100345.84
2022-10-10T16:12:45.120Z,100351.03
2022-10-10T16:15:12.566Z,100353.94
2022-10-10T16:17:40.202Z,100354.34
2022-10-10T16:20:07.962Z,100347.72
2022-10-10T16:22:35.282Z,100349.78
2022-10-10T16:25:21.206Z,100353.91
2022-10-10T16:27:49.556Z,100347.25
2022-10-10T16:30:17.366Z,100349.94
2022-10-10T16:32:44.691Z,100345.84
2022-10-10T16:35:12.042Z,100347.44
2022-10-10T16:37:39.660Z,100345.59
2022-10-10T16:40:07.695Z,100343.25
2022-10-10T16:42:35.034Z,100354.81
2022-10-10T16:45:02.680Z,100358.50
2022-10-10T16:47:30.676Z,100355.81
2022-10-10T16:49:57.969Z,100361.69
2022-10-10T16:52:25.575Z,100355.72
2022-10-10T16:54:52.899Z,100360.03
2022-10-10T16:57:20.273Z,100355.56
2022-10-10T16:59:47.876Z,100352.00
2022-10-10T17:02:15.204Z,100357.47
2022-10-10T17:04:42.627Z,100358.91
2022-10-10T17:07:10.203Z,100362.09
2022-10-10T17:09:37.521Z,100367.28
2022-10-10T17:12:05.053Z,100371.47
2022-10-10T17:14:32.636Z,100370.19
2022-10-10T17:17:11.473Z,100368.84
2022-10-10T17:19:39.591Z,100376.97
2022-10-10T17:22:06.935Z,100369.00
2022-10-10T17:24:34.465Z,100375.84
2022-10-10T17:27:02.122Z,100364.75
2022-10-10T17:29:30.848Z,100363.69
2022-10-10T17:32:00.623Z,100363.03
2022-10-10T17:34:31.807Z,100364.75
2022-10-10T17:36:59.183Z,100356.84
2022-10-10T17:39:26.496Z,100364.56
2022-10-10T17:41:54.140Z,100354.66
2022-10-10T17:44:21.563Z,100359.59
2022-10-10T17:46:50.438Z,100352.16
2022-10-10T17:49:19.309Z,100360.00
2022-10-10T17:51:46.751Z,100352.16
2022-10-10T17:54:14.075Z,100347.84
2022-10-10T17:56:44.507Z,100348.78
2022-10-10T17:59:11.869Z,100345.16
2022-10-10T18:01:39.756Z,100353.72
2022-10-10T18:04:07.492Z,100356.56
2022-10-10T18:06:36.356Z,100357.22
2022-10-10T18:09:03.822Z,100355.81
2022-10-10T18:11:31.567Z,100354.56
2022-10-10T18:14:01.900Z,100352.03
2022-10-10T18:16:32.286Z,100355.72
2022-10-10T18:19:00.101Z,100354.16
2022-10-10T18:21:27.489Z,100359.44
2022-10-10T18:23:54.843Z,100350.41
2022-10-10T18:26:24.246Z,100358.97
2022-10-10T18:28:55.691Z,100356.50
2022-10-10T18:31:28.387Z,100351.72
2022-10-10T18:33:55.783Z,100351.63
2022-10-10T18:36:24.406Z,100355.09
2022-10-10T18:38:51.766Z,100355.13
2022-10-10T18:41:21.275Z,100352.63
2022-10-10T18:43:48.976Z,100353.41
2022-10-10T18:46:18.401Z,100360.31
2022-10-10T18:48:50.071Z,100355.34
2022-10-10T18:51:24.084Z,100353.72
2022-10-10T18:53:53.068Z,100361.63
2022-10-10T18:56:24.439Z,100362.63
2022-10-10T18:58:53.768Z,100366.91
2022-10-10T19:01:24.921Z,100362.34
2022-10-10T19:03:52.822Z,100358.87
2022-10-10T19:06:20.198Z,100356.00
2022-10-10T19:08:47.800Z,100357.66
2022-10-10T19:11:26.418Z,100359.66
2022-10-10T19:13:54.047Z,100362.75
2022-10-10T19:16:21.880Z,100354.06
2022-10-10T19:18:49.185Z,100354.97
2022-10-10T19:21:16.827Z,100352.37
2022-10-10T19:23:44.163Z,100356.22
2022-10-10T19:26:13.097Z,100357.97
2022-10-10T19:28:40.989Z,100359.88
2022-10-10T19:31:12.950Z,100361.47
2022-10-10T19:33:40.811Z,100354.50
2022-10-10T19:36:11.589Z,100355.78
2022-10-10T19:38:39.793Z,100353.97
2022-10-10T19:41:08.654Z,100355.75
2022-10-10T19:43:36.220Z,100352.72
2022-10-10T19:46:05.574Z,100360.59
2022-10-10T19:48:33.721Z,100358.22
2022-10-10T19:51:04.305Z,100369.66
2022-10-10T19:53:33.406Z,100364.47
2022-10-10T19:56:04.874Z,100362.75
2022-10-10T19:58:32.562Z,100363.28
2022-10-10T20:00:59.926Z,100363.44
2022-10-10T20:03:27.572Z,100364.62
2022-10-10T20:06:00.219Z,100360.59
2022-10-10T20:08:28.532Z,100365.22
2022-10-10T20:10:55.851Z,100360.31
2022-10-10T20:13:23.219Z,100368.47
2022-10-10T20:15:51.147Z,100351.03
2022-10-10T20:18:19.901Z,100355.34
2022-10-10T20:20:49.654Z,100348.63
2022-10-10T20:23:18.489Z,100347.00
2022-10-10T20:25:45.797Z,100350.50
2022-10-10T20:28:17.360Z,100350.31
2022-10-10T20:30:48.516Z,100356.88
2022-10-10T20:33:16.720Z,100361.16
2022-10-10T20:35:44.116Z,100360.13
2022-10-10T20:38:12.191Z,100354.38
2022-10-10T20:40:40.080Z,100349.37
2022-10-10T20:43:07.395Z,100357.03
2022-10-10T20:45:36.374Z,100367.16
2022-10-10T20:48:04.647Z,100358.91
2022-10-10T20:50:36.020Z,100359.00
2022-10-10T20:53:03.959Z,100360.47
2022-10-10T20:55:31.717Z,100360.66
2022-10-10T20:57:59.388Z,100357.53
2022-10-10T21:00:26.987Z,100351.91
2022-10-10T21:02:57.715Z,100351.97
2022-10-10T21:05:25.075Z,100354.31
2022-10-10T21:07:52.730Z,100348.53
2022-10-10T21:10:20.106Z,100350.13
2022-10-10T21:12:47.467Z,100350.19
2022-10-10T21:15:15.105Z,100351.53
2022-10-10T21:17:42.542Z,100352.22
2022-10-10T21:20:10.230Z,100353.50
2022-10-10T21:22:37.799Z,100355.25
2022-10-10T21:25:05.765Z,100353.72
2022-10-10T21:27:33.078Z,100362.44
2022-10-10T21:30:00.648Z,100355.31
2022-10-10T21:32:28.005Z,100351.03
2022-10-10T21:34:56.584Z,100347.53
2022-10-10T21:37:27.073Z,100351.69
2022-10-10T21:39:54.443Z,100352.44
2022-10-10T21:42:21.794Z,100350.31
2022-10-10T21:44:49.377Z,100355.87
2022-10-10T21:47:16.696Z,100350.22
2022-10-10T21:49:44.144Z,100352.63
2022-10-10T21:52:11.857Z,100357.16
2022-10-10T21:54:39.292Z,100365.22
2022-10-10T21:57:06.617Z,100366.16
2022-10-10T21:59:34.214Z,100357.41
2022-10-10T22:02:01.563Z,100363.31
2022-10-10T22:04:29.319Z,100356.97
2022-10-10T22:06:56.676Z,100359.88
2022-10-10T22:09:23.983Z,100358.41
2022-10-10T22:11:51.556Z,100362.03
2022-10-10T22:14:18.876Z,100356.16
2022-10-10T22:16:46.240Z,100358.28
2022-10-10T22:19:13.829Z,100345.84
2022-10-10T22:21:41.353Z,100353.28
2022-10-10T22:24:08.719Z,100349.13
2022-10-10T22:26:36.405Z,100342.44
2022-10-10T22:29:04.072Z,100346.41
2022-10-10T22:31:31.452Z,100347.22
2022-10-10T22:33:59.093Z,100348.03
2022-10-10T22:36:26.457Z,100337.84
2022-10-10T22:38:53.809Z,100331.50
2022-10-10T22:41:21.467Z,100335.87
2022-10-10T22:43:49.681Z,100339.66
2022-10-10T22:46:16.995Z,100342.44
2022-10-10T22:48:44.592Z,100336.03
2022-10-10T22:51:13.932Z,100331.72
2022-10-10T22:53:41.774Z,100335.75
2022-10-10T22:56:10.112Z,100336.44
2022-10-10T22:58:37.423Z,100329.03
2022-10-10T23:01:10.633Z,100331.91
2022-10-10T23:03:38.253Z,100328.34
2022-10-10T23:06:06.161Z,100334.66
2022-10-10T23:08:33.847Z,100335.25
2022-10-10T23:11:01.626Z,100324.03
2022-10-10T23:13:28.948Z,100333.09
2022-10-10T23:15:56.342Z,100328.25
2022-10-10T23:18:23.997Z,100333.47
2022-10-10T23:20:51.305Z,100333.16
2022-10-10T23:23:18.893Z,100322.37
2022-10-10T23:25:46.709Z,100335.19
2022-10-10T23:28:14.454Z,100332.59
2022-10-10T23:30:42.492Z,100331.03
2022-10-10T23:33:10.195Z,100336.91
2022-10-10T23:35:37.758Z,100338.19
2022-10-10T23:38:05.477Z,100324.56
2022-10-10T23:40:33.904Z,100326.28
2022-10-10T23:43:01.382Z,100323.34
2022-10-10T23:45:28.683Z,100325.66
2022-10-10T23:47:56.323Z,100322.63
2022-10-10T23:50:23.657Z,100328.81
2022-10-10T23:52:50.975Z,100334.66
2022-10-10T23:55:18.570Z,100327.59
2022-10-10T23:57:45.893Z,100327.06
